Time;durP1;ratioP1;P1;durP2;ratioP2;P2;SDS_P1;SDS_P2;PMS_P1;PMS_P2;Temp;Humidity;BMP_temperature;BMP_pressure;BME280_temperature;BME280_humidity;BME280_pressure;Samples;Min_cycle;Max_cycle;Signal;HPM_P1;HPM_P2
2022/09/25 00:00:43;;;;;;;64.32;22.05;;;12.40;99.90;;;;;;5007166;28;20102;-73
2022/09/25 00:03:13;;;;;;;64.30;22.55;;;12.40;99.90;;;;;;5007626;28;20423;-73
2022/09/25 00:05:41;;;;;;;57.08;21.67;;;12.40;99.90;;;;;;5008170;28;20427;-73
2022/09/25 00:08:08;;;;;;;69.20;22.42;;;12.30;99.90;;;;;;5006392;28;20607;-73
2022/09/25 00:10:34;;;;;;;63.92;21.83;;;12.40;99.90;;;;;;5006779;28;20096;-73
2022/09/25 00:13:00;;;;;;;72.35;23.00;;;12.30;99.90;;;;;;5011787;28;20157;-73
2022/09/25 00:15:25;;;;;;;63.28;23.08;;;12.30;99.90;;;;;;5010502;28;20109;-73
2022/09/25 00:17:51;;;;;;;70.25;23.50;;;12.30;99.90;;;;;;5006076;28;20045;-73
2022/09/25 00:20:19;;;;;;;84.32;23.08;;;12.30;99.90;;;;;;5011949;28;20030;-73
2022/09/25 00:22:45;;;;;;;75.60;23.85;;;12.30;99.90;;;;;;5010540;28;20018;-75
2022/09/25 00:25:15;;;;;;;76.45;23.60;;;12.30;99.90;;;;;;5010657;28;20112;-73
2022/09/25 00:27:42;;;;;;;71.03;24.83;;;12.30;99.90;;;;;;5009508;28;20452;-73
2022/09/25 00:30:09;;;;;;;69.00;25.23;;;12.30;99.90;;;;;;5011579;28;20092;-73
2022/09/25 00:32:36;;;;;;;80.13;27.27;;;12.30;99.90;;;;;;5010263;28;20046;-73
2022/09/25 00:35:02;;;;;;;77.03;26.83;;;12.40;99.90;;;;;;4999216;28;20109;-73
2022/09/25 00:37:28;;;;;;;83.43;28.10;;;12.30;99.90;;;;;;5011101;28;20037;-72
2022/09/25 00:39:54;;;;;;;75.43;27.15;;;12.30;99.90;;;;;;5008941;28;20026;-72
2022/09/25 00:42:21;;;;;;;78.38;26.95;;;12.30;99.90;;;;;;5011229;28;20056;-73
2022/09/25 00:44:52;;;;;;;77.85;26.10;;;12.30;99.90;;;;;;5011033;28;20034;-73
2022/09/25 00:47:21;;;;;;;74.13;24.35;;;12.30;99.90;;;;;;5011132;28;20043;-73
2022/09/25 00:49:47;;;;;;;67.85;25.48;;;12.20;99.90;;;;;;5010124;28;20042;-73
2022/09/25 00:52:13;;;;;;;63.25;24.27;;;12.30;99.90;;;;;;5025640;28;20096;-73
2022/09/25 00:54:45;;;;;;;71.82;23.77;;;12.20;99.90;;;;;;5013043;28;20042;-72
2022/09/25 00:57:14;;;;;;;69.50;22.83;;;12.20;99.90;;;;;;5018379;28;20057;-73
2022/09/25 00:59:43;;;;;;;68.55;22.85;;;12.30;99.90;;;;;;5010009;28;20373;-73
2022/09/25 01:02:14;;;;;;;66.35;21.73;;;12.20;99.90;;;;;;5002462;28;20445;-73
2022/09/25 01:04:44;;;;;;;67.90;24.52;;;12.30;99.90;;;;;;5008274;28;20108;-73
2022/09/25 01:07:10;;;;;;;71.50;23.10;;;12.30;99.90;;;;;;5001620;28;20042;-73
2022/09/25 01:09:36;;;;;;;67.93;23.52;;;12.20;99.90;;;;;;4994261;28;20488;-73
2022/09/25 01:12:01;;;;;;;72.00;24.50;;;12.20;99.90;;;;;;5010315;28;20387;-73
2022/09/25 01:14:27;;;;;;;70.35;24.80;;;12.30;99.90;;;;;;5009623;28;20064;-72
2022/09/25 01:17:20;;;;;;;90.15;24.90;;;12.20;99.90;;;;;;5008390;28;20022;-73
2022/09/25 01:20:15;;;;;;;79.20;24.52;;;12.30;99.90;;;;;;5003368;28;20045;-73
2022/09/25 01:22:40;;;;;;;70.95;23.98;;;12.20;99.90;;;;;;5008526;28;20065;-74
2022/09/25 01:25:45;;;;;;;77.93;23.65;;;12.20;99.90;;;;;;4997359;28;20108;-73
2022/09/25 01:28:49;;;;;;;63.67;20.88;;;12.20;99.90;;;;;;4998591;28;20069;-73
2022/09/25 01:31:43;;;;;;;76.65;22.15;;;12.30;99.90;;;;;;5017648;28;20081;-73
2022/09/25 01:34:26;;;;;;;78.95;22.60;;;12.30;99.90;;;;;;5009436;28;20022;-73
2022/09/25 01:37:02;;;;;;;75.63;22.77;;;12.30;99.90;;;;;;5009263;28;20034;-73
2022/09/25 01:39:33;;;;;;;78.97;23.02;;;12.20;99.90;;;;;;5001664;28;20030;-73
2022/09/25 01:42:11;;;;;;;105.18;23.15;;;12.20;99.90;;;;;;4997370;28;20022;-73
2022/09/25 01:44:45;;;;;;;76.35;22.08;;;12.20;99.90;;;;;;5009298;28;20033;-73
2022/09/25 01:47:19;;;;;;;85.63;23.90;;;12.20;99.90;;;;;;5007239;28;20386;-73
2022/09/25 01:49:50;;;;;;;71.68;22.92;;;12.30;99.90;;;;;;5019428;28;20034;-73
2022/09/25 01:52:24;;;;;;;76.43;23.17;;;12.20;99.90;;;;;;5015644;28;20057;-73
2022/09/25 01:54:54;;;;;;;71.50;21.88;;;12.20;99.90;;;;;;5008600;28;20079;-74
2022/09/25 01:57:23;;;;;;;68.93;22.53;;;12.20;99.90;;;;;;4971095;28;993524;-72
2022/09/25 02:00:07;;;;;;;69.68;22.08;;;12.20;99.90;;;;;;5009483;28;20033;-73
2022/09/25 02:02:39;;;;;;;59.15;19.60;;;12.20;99.90;;;;;;5008213;28;20026;-73
2022/09/25 02:05:25;;;;;;;52.50;19.23;;;12.20;99.90;;;;;;5009834;28;20096;-73
2022/09/25 02:07:57;;;;;;;61.05;19.25;;;12.20;99.90;;;;;;5008160;28;20049;-73
2022/09/25 02:10:31;;;;;;;56.40;19.00;;;12.30;99.90;;;;;;5009278;28;20034;-73
2022/09/25 02:13:06;;;;;;;53.13;18.70;;;12.30;99.90;;;;;;5009665;28;20057;-73
2022/09/25 02:15:36;;;;;;;47.88;17.77;;;12.30;99.90;;;;;;5004007;28;20364;-74
2022/09/25 02:21:19;;;;;;;55.55;17.90;;;12.20;99.90;;;;;;5009659;28;20059;-73
2022/09/25 02:24:30;;;;;;;48.67;19.45;;;12.20;99.90;;;;;;5008294;28;20030;-73
2022/09/25 02:26:55;;;;;;;52.95;19.08;;;12.20;99.90;;;;;;4993817;28;20034;-74
2022/09/25 02:29:22;;;;;;;56.25;19.63;;;12.20;99.90;;;;;;5009468;28;20145;-73
2022/09/25 02:31:53;;;;;;;57.40;19.67;;;12.20;99.90;;;;;;5009258;28;20362;-74
2022/09/25 02:34:20;;;;;;;50.20;18.45;;;12.20;99.90;;;;;;5002057;28;20033;-73
2022/09/25 02:36:46;;;;;;;58.28;19.95;;;12.20;99.90;;;;;;5008165;28;20064;-74
2022/09/25 02:39:15;;;;;;;48.63;19.50;;;12.20;99.90;;;;;;5008481;28;20069;-74
2022/09/25 02:41:56;;;;;;;57.22;19.20;;;12.20;99.90;;;;;;5021606;28;20038;-73
2022/09/25 02:44:35;;;;;;;51.03;19.85;;;12.20;99.90;;;;;;5008226;28;20098;-73
2022/09/25 02:47:26;;;;;;;54.70;20.73;;;12.20;99.90;;;;;;5009551;28;20037;-74
2022/09/25 02:49:54;;;;;;;46.67;18.23;;;12.10;99.90;;;;;;4996248;28;20175;-74
2022/09/25 02:52:36;;;;;;;49.88;18.42;;;12.10;99.90;;;;;;5005397;28;20435;-73
2022/09/25 02:55:05;;;;;;;46.33;18.40;;;12.10;99.90;;;;;;5006473;28;20340;-74
2022/09/25 02:57:51;;;;;;;54.38;19.00;;;12.10;99.90;;;;;;5009476;28;20060;-73
2022/09/25 03:00:19;;;;;;;52.97;18.92;;;12.10;99.90;;;;;;5010219;28;20108;-73
2022/09/25 03:02:46;;;;;;;43.75;18.70;;;12.10;99.90;;;;;;5008255;28;20038;-74
2022/09/25 03:05:13;;;;;;;50.80;18.92;;;12.10;99.90;;;;;;5008665;28;20520;-73
2022/09/25 03:10:24;;;;;;;46.67;19.17;;;12.10;99.90;;;;;;5000574;28;20466;-73
2022/09/25 03:12:49;;;;;;;52.20;18.67;;;12.10;99.90;;;;;;5009257;28;20395;-71
2022/09/25 03:15:15;;;;;;;45.42;18.30;;;12.10;99.90;;;;;;5009806;28;20174;-71
2022/09/25 03:17:42;;;;;;;53.28;19.55;;;12.10;99.90;;;;;;5009035;28;20089;-72
2022/09/25 03:20:08;;;;;;;56.95;19.23;;;12.10;99.90;;;;;;5000986;28;20101;-72
2022/09/25 03:22:35;;;;;;;53.45;18.50;;;12.10;99.90;;;;;;5003018;28;20087;-73
2022/09/25 03:25:00;;;;;;;53.67;19.10;;;12.10;99.90;;;;;;4999220;28;20346;-72
2022/09/25 03:27:27;;;;;;;58.83;20.88;;;12.10;99.90;;;;;;5007604;28;20411;-71
2022/09/25 03:29:54;;;;;;;52.75;18.65;;;12.10;99.90;;;;;;5009000;28;20450;-72
2022/09/25 03:32:20;;;;;;;44.88;18.38;;;12.10;99.90;;;;;;5008782;28;20029;-72
2022/09/25 03:34:45;;;;;;;49.78;17.75;;;12.10;99.90;;;;;;5008182;28;20220;-71
2022/09/25 03:37:10;;;;;;;61.22;19.60;;;12.10;99.90;;;;;;5008893;28;20037;-72
2022/09/25 03:39:36;;;;;;;53.08;19.05;;;12.10;99.90;;;;;;5002567;28;20030;-72
2022/09/25 03:42:02;;;;;;;54.10;18.83;;;12.10;99.90;;;;;;5021667;28;20033;-72
2022/09/25 03:44:28;;;;;;;54.83;19.63;;;12.10;99.90;;;;;;5009002;28;20113;-72
2022/09/25 03:46:53;;;;;;;66.70;20.58;;;12.10;99.90;;;;;;5013419;28;20042;-72
2022/09/25 03:49:19;;;;;;;60.00;20.08;;;12.10;99.90;;;;;;4999837;28;20026;-72
2022/09/25 03:51:44;;;;;;;64.70;19.48;;;12.10;99.90;;;;;;5023367;28;20037;-72
2022/09/25 03:54:10;;;;;;;66.28;18.58;;;12.10;99.90;;;;;;5018380;28;20535;-72
2022/09/25 03:56:35;;;;;;;50.00;18.50;;;12.10;99.90;;;;;;5014515;28;20050;-72
2022/09/25 03:59:00;;;;;;;65.10;20.08;;;12.10;99.90;;;;;;5002486;28;20065;-72
2022/09/25 04:01:27;;;;;;;69.50;18.88;;;12.10;99.90;;;;;;5012958;28;20037;-72
2022/09/25 04:03:53;;;;;;;60.05;17.05;;;12.10;99.90;;;;;;5012139;28;20121;-72
2022/09/25 04:06:22;;;;;;;54.33;17.05;;;12.10;99.90;;;;;;5012455;28;20050;-72
2022/09/25 04:08:48;;;;;;;42.13;14.95;;;12.10;99.90;;;;;;5010960;28;20038;-72
2022/09/25 04:11:16;;;;;;;36.42;14.05;;;12.10;99.90;;;;;;5011787;28;20088;-72
2022/09/25 04:13:43;;;;;;;44.38;13.48;;;12.10;99.90;;;;;;5013184;28;20108;-72
2022/09/25 04:16:09;;;;;;;37.03;12.98;;;12.10;99.90;;;;;;5011552;28;20240;-72
2022/09/25 04:18:35;;;;;;;31.13;12.98;;;12.10;99.90;;;;;;5011143;28;20042;-73
2022/09/25 04:21:04;;;;;;;30.40;12.55;;;12.10;99.90;;;;;;5012327;28;20049;-72
2022/09/25 04:23:30;;;;;;;28.92;12.00;;;12.10;99.90;;;;;;5013250;28;20037;-72
2022/09/25 04:25:56;;;;;;;29.38;12.10;;;12.10;99.90;;;;;;5022299;28;20359;-72
2022/09/25 04:28:23;;;;;;;23.83;11.13;;;12.00;99.90;;;;;;5007724;28;20168;-71
2022/09/25 04:30:49;;;;;;;23.17;10.13;;;12.00;99.90;;;;;;5006671;28;20115;-68
2022/09/25 04:33:45;;;;;;;19.98;9.60;;;12.00;99.90;;;;;;5010302;28;20439;-67
2022/09/25 04:36:04;;;;;;;20.30;9.50;;;12.00;99.90;;;;;;5011682;28;20033;-67
2022/09/25 04:38:32;;;;;;;19.80;9.25;;;12.00;99.90;;;;;;5013356;28;20035;-68
2022/09/25 04:41:01;;;;;;;14.55;8.18;;;12.00;99.90;;;;;;5019997;28;20123;-69
2022/09/25 04:43:31;;;;;;;14.77;8.23;;;12.00;99.90;;;;;;5012384;28;20022;-67
2022/09/25 04:46:04;;;;;;;15.60;7.70;;;11.90;99.90;;;;;;5009601;28;20374;-67
2022/09/25 04:48:31;;;;;;;12.07;7.30;;;11.90;99.90;;;;;;5005384;28;20049;-68
2022/09/25 04:50:57;;;;;;;11.95;7.50;;;11.90;99.90;;;;;;5011003;28;20439;-67
2022/09/25 04:53:26;;;;;;;15.07;7.63;;;11.90;99.90;;;;;;5008467;28;20412;-68
2022/09/25 04:55:53;;;;;;;12.85;8.18;;;11.80;99.90;;;;;;5010766;28;20476;-68
2022/09/25 04:58:19;;;;;;;13.82;8.10;;;11.90;99.90;;;;;;5011322;28;20331;-68
2022/09/25 05:00:44;;;;;;;17.13;9.15;;;11.90;99.90;;;;;;5010385;28;20474;-68
2022/09/25 05:03:10;;;;;;;18.33;9.45;;;11.80;99.90;;;;;;5009699;28;20034;-68
2022/09/25 05:05:35;;;;;;;17.05;9.40;;;11.80;99.90;;;;;;5004993;28;20160;-68
2022/09/25 05:08:02;;;;;;;17.35;8.77;;;11.80;99.90;;;;;;5002200;28;20399;-68
2022/09/25 05:10:30;;;;;;;19.67;9.18;;;11.80;99.90;;;;;;5009285;28;20128;-67
2022/09/25 05:13:00;;;;;;;16.05;9.45;;;11.80;99.90;;;;;;5010796;28;20100;-67
2022/09/25 05:15:27;;;;;;;18.42;8.98;;;11.80;99.90;;;;;;5023288;28;20021;-67
2022/09/25 05:18:15;;;;;;;13.32;8.73;;;11.80;99.90;;;;;;5017654;28;20041;-68
2022/09/25 05:20:40;;;;;;;15.75;8.93;;;11.80;99.90;;;;;;5015060;28;20056;-67
2022/09/25 05:23:06;;;;;;;18.15;9.82;;;11.80;99.90;;;;;;5017846;28;20058;-67
2022/09/25 05:25:31;;;;;;;16.60;9.05;;;11.80;99.90;;;;;;5010054;28;20117;-67
2022/09/25 05:27:58;;;;;;;16.70;8.88;;;11.80;99.90;;;;;;5010481;28;20080;-68
2022/09/25 05:30:25;;;;;;;20.70;8.77;;;11.80;99.90;;;;;;5009476;28;20064;-68
2022/09/25 05:32:51;;;;;;;18.88;9.10;;;11.80;99.90;;;;;;5009992;28;20136;-69
2022/09/25 05:35:19;;;;;;;16.55;8.90;;;11.70;99.90;;;;;;5011262;28;20060;-70
2022/09/25 05:37:44;;;;;;;15.48;8.75;;;11.80;99.90;;;;;;5004305;28;20026;-73
2022/09/25 05:40:10;;;;;;;16.50;8.85;;;11.80;99.90;;;;;;4995640;28;20319;-69
2022/09/25 05:42:35;;;;;;;16.10;8.90;;;11.70;99.90;;;;;;5009335;28;20095;-70
2022/09/25 05:45:01;;;;;;;17.25;8.85;;;11.80;99.90;;;;;;5007269;28;20385;-69
2022/09/25 05:47:26;;;;;;;14.68;8.05;;;11.80;99.90;;;;;;5010025;28;20025;-69
2022/09/25 05:49:52;;;;;;;15.15;8.60;;;11.80;99.90;;;;;;5010587;28;20041;-70
2022/09/25 05:52:17;;;;;;;16.85;8.00;;;11.70;99.90;;;;;;5010721;28;20030;-69
2022/09/25 05:54:43;;;;;;;15.90;7.97;;;11.80;99.90;;;;;;5004935;28;20094;-69
2022/09/25 05:57:08;;;;;;;16.58;7.90;;;11.70;99.90;;;;;;5024028;28;20492;-70
2022/09/25 05:59:34;;;;;;;14.95;8.02;;;11.80;99.90;;;;;;5016140;28;20038;-69
2022/09/25 06:01:59;;;;;;;13.93;7.60;;;11.80;99.90;;;;;;5011073;28;20045;-69
2022/09/25 06:04:25;;;;;;;16.48;7.68;;;11.80;99.90;;;;;;5022748;28;20032;-71
2022/09/25 06:06:51;;;;;;;13.32;7.65;;;11.80;99.90;;;;;;5010486;28;20034;-69
2022/09/25 06:09:17;;;;;;;11.65;6.97;;;11.80;99.90;;;;;;5007192;28;20119;-69
2022/09/25 06:11:46;;;;;;;14.27;7.15;;;11.80;99.90;;;;;;5008843;28;20056;-69
2022/09/25 06:14:12;;;;;;;11.40;6.63;;;11.80;99.90;;;;;;5000216;28;20057;-70
2022/09/25 06:16:38;;;;;;;13.77;6.45;;;11.80;99.90;;;;;;5010551;28;20036;-69
2022/09/25 06:19:03;;;;;;;11.90;6.60;;;11.80;99.90;;;;;;5022678;28;20025;-69
2022/09/25 06:21:29;;;;;;;10.80;6.78;;;11.80;99.90;;;;;;5010087;28;20047;-69
2022/09/25 06:23:54;;;;;;;12.65;6.75;;;11.80;99.90;;;;;;5019353;28;20095;-71
2022/09/25 06:26:20;;;;;;;10.63;6.35;;;11.80;99.90;;;;;;5006913;28;20036;-69
2022/09/25 06:28:45;;;;;;;10.27;6.22;;;11.80;99.90;;;;;;5005314;28;20038;-69
2022/09/25 06:31:11;;;;;;;11.45;5.97;;;11.80;99.90;;;;;;5005540;28;20104;-69
2022/09/25 06:33:36;;;;;;;10.50;6.38;;;11.80;99.90;;;;;;5009406;28;20125;-69
2022/09/25 06:36:04;;;;;;;9.77;6.40;;;11.80;99.90;;;;;;5009975;28;20026;-69
2022/09/25 06:38:32;;;;;;;11.75;6.38;;;11.80;99.90;;;;;;5007118;28;20036;-69
2022/09/25 06:40:58;;;;;;;9.63;6.03;;;11.80;99.90;;;;;;5008150;28;20018;-69
2022/09/25 06:43:24;;;;;;;9.73;6.00;;;11.90;99.90;;;;;;5008066;28;20095;-69
2022/09/25 06:45:50;;;;;;;9.25;5.35;;;11.90;99.90;;;;;;5003857;28;20041;-70
2022/09/25 06:48:16;;;;;;;9.15;5.47;;;11.80;99.90;;;;;;5008572;28;20144;-69
2022/09/25 06:50:45;;;;;;;8.30;5.45;;;11.90;99.90;;;;;;5009450;28;20034;-70
2022/09/25 06:53:11;;;;;;;9.68;5.25;;;11.80;99.90;;;;;;5007855;28;20271;-69
2022/09/25 06:55:37;;;;;;;9.32;5.68;;;11.80;99.90;;;;;;5022346;28;20465;-69
2022/09/25 06:58:05;;;;;;;9.90;6.00;;;11.80;99.90;;;;;;5006914;28;20060;-68
2022/09/25 07:00:32;;;;;;;9.38;5.60;;;11.80;99.90;;;;;;5009394;28;20103;-69
2022/09/25 07:05:43;;;;;;;10.30;6.63;;;11.80;99.90;;;;;;5000024;28;20115;-69
2022/09/25 07:08:11;;;;;;;10.30;6.75;;;11.80;99.90;;;;;;5007940;28;20030;-69
2022/09/25 07:10:37;;;;;;;10.98;6.90;;;11.80;99.90;;;;;;5007434;28;20125;-69
2022/09/25 07:13:03;;;;;;;12.80;6.40;;;11.80;99.90;;;;;;5007891;28;20129;-69
2022/09/25 07:15:29;;;;;;;13.60;7.00;;;11.80;99.90;;;;;;5009574;28;20036;-68
2022/09/25 07:17:54;;;;;;;11.35;7.18;;;11.80;99.90;;;;;;5009038;28;20105;-69
2022/09/25 07:20:21;;;;;;;12.50;7.47;;;11.80;99.90;;;;;;5011513;28;20407;-69
2022/09/25 07:22:46;;;;;;;12.05;7.63;;;11.80;99.90;;;;;;5011023;28;20462;-73
2022/09/25 07:25:12;;;;;;;11.43;6.93;;;11.80;99.90;;;;;;5006867;28;20025;-69
2022/09/25 07:27:38;;;;;;;11.30;7.13;;;11.80;99.90;;;;;;5008959;28;20038;-69
2022/09/25 07:30:04;;;;;;;12.77;7.70;;;11.70;99.90;;;;;;5016951;28;20113;-71
2022/09/25 07:32:30;;;;;;;11.65;7.20;;;11.80;99.90;;;;;;5001310;28;20092;-70
2022/09/25 07:34:57;;;;;;;10.95;6.55;;;11.80;99.90;;;;;;5013483;28;20592;-70
2022/09/25 07:37:23;;;;;;;12.15;7.55;;;11.80;99.90;;;;;;5002457;28;20132;-70
2022/09/25 07:39:48;;;;;;;13.80;7.13;;;11.80;99.90;;;;;;5003806;28;20419;-69
2022/09/25 07:42:15;;;;;;;12.88;6.75;;;11.80;99.90;;;;;;5007438;28;20037;-69
2022/09/25 07:44:41;;;;;;;10.25;6.75;;;11.80;99.90;;;;;;5008567;28;20033;-69
2022/09/25 07:47:07;;;;;;;10.77;6.68;;;11.80;99.90;;;;;;5006132;28;20026;-70
2022/09/25 07:49:33;;;;;;;10.48;6.97;;;11.80;99.90;;;;;;5008082;28;20034;-70
2022/09/25 07:52:00;;;;;;;10.50;7.45;;;11.80;99.90;;;;;;5009119;28;20106;-69
2022/09/25 07:54:25;;;;;;;11.77;7.18;;;11.70;99.90;;;;;;5005234;28;20152;-70
2022/09/25 07:56:51;;;;;;;11.60;7.13;;;11.80;99.90;;;;;;4998362;28;20173;-70
2022/09/25 07:59:16;;;;;;;12.57;7.93;;;11.80;99.90;;;;;;5008738;28;20022;-69
2022/09/25 08:01:42;;;;;;;14.15;8.43;;;11.80;99.90;;;;;;5022772;28;20025;-69
2022/09/25 08:04:07;;;;;;;13.32;7.88;;;11.80;99.90;;;;;;5008136;28;20053;-70
2022/09/25 08:06:34;;;;;;;12.85;8.52;;;11.80;99.90;;;;;;5009257;28;20088;-69
2022/09/25 08:08:59;;;;;;;16.25;8.40;;;11.90;99.90;;;;;;5005230;28;20434;-69
2022/09/25 08:11:26;;;;;;;15.68;9.10;;;11.80;99.90;;;;;;5001846;28;20066;-70
2022/09/25 08:13:52;;;;;;;12.15;9.50;;;11.90;99.90;;;;;;5004087;28;20025;-69
2022/09/25 08:16:21;;;;;;;14.85;10.05;;;11.90;99.90;;;;;;5009053;28;20088;-70
2022/09/25 08:18:47;;;;;;;13.48;9.45;;;11.90;99.90;;;;;;5006179;28;20030;-69
2022/09/25 08:21:16;;;;;;;17.05;10.07;;;12.00;99.90;;;;;;5008563;28;20040;-70
2022/09/25 08:23:42;;;;;;;14.75;9.77;;;12.00;99.90;;;;;;5007284;28;20061;-70
2022/09/25 08:26:08;;;;;;;14.48;10.00;;;12.00;99.90;;;;;;5018668;28;20124;-69
2022/09/25 08:28:34;;;;;;;14.40;9.73;;;12.00;99.90;;;;;;4993417;28;20113;-69
2022/09/25 08:31:02;;;;;;;14.52;10.05;;;12.00;99.90;;;;;;5004557;28;20045;-70
2022/09/25 08:33:28;;;;;;;18.13;11.50;;;12.10;99.90;;;;;;5011261;28;20081;-69
2022/09/25 08:35:59;;;;;;;16.23;11.48;;;12.10;99.90;;;;;;5012075;28;20041;-70
2022/09/25 08:38:25;;;;;;;17.55;12.02;;;12.10;99.90;;;;;;5010442;28;20022;-70
2022/09/25 08:41:26;;;;;;;19.83;11.70;;;12.10;99.90;;;;;;5011314;28;20330;-70
2022/09/25 08:43:56;;;;;;;18.63;11.82;;;12.10;99.90;;;;;;5001803;28;20041;-69
2022/09/25 08:49:25;;;;;;;14.32;9.93;;;12.30;99.90;;;;;;5010848;28;20501;-70
2022/09/25 08:51:51;;;;;;;15.05;11.13;;;12.30;99.70;;;;;;5011772;28;20177;-70
2022/09/25 08:54:26;;;;;;;17.25;11.35;;;12.40;99.80;;;;;;5007126;28;20482;-70
2022/09/25 08:57:12;;;;;;;18.65;10.85;;;12.50;99.70;;;;;;5012065;28;20157;-71
2022/09/25 08:59:41;;;;;;;17.80;10.85;;;12.50;99.60;;;;;;5020016;28;20092;-69
2022/09/25 09:02:19;;;;;;;13.10;9.80;;;12.60;99.60;;;;;;5008955;28;20041;-70
2022/09/25 09:04:55;;;;;;;16.48;10.13;;;12.60;99.30;;;;;;5008968;28;20100;-70
2022/09/25 09:07:28;;;;;;;14.13;9.82;;;12.60;99.30;;;;;;5009427;28;20240;-69
2022/09/25 09:10:13;;;;;;;16.60;10.85;;;12.80;99.50;;;;;;5008563;28;20100;-70
2022/09/25 09:12:43;;;;;;;17.23;10.25;;;12.70;99.10;;;;;;5011285;28;20034;-70
2022/09/25 09:15:17;;;;;;;15.75;10.77;;;12.70;99.00;;;;;;5011339;28;20160;-70
2022/09/25 09:17:43;;;;;;;19.63;10.70;;;12.90;99.00;;;;;;5010402;28;20105;-71
2022/09/25 09:20:24;;;;;;;16.15;10.93;;;12.90;99.00;;;;;;5007706;28;20177;-70
2022/09/25 09:22:51;;;;;;;;;;;12.80;98.60;;;;;;5008663;28;20022;-72
2022/09/25 09:25:34;;;;;;;13.98;10.23;;;12.80;98.20;;;;;;5010924;28;19963;-70
2022/09/25 09:28:06;;;;;;;15.77;10.82;;;12.80;98.30;;;;;;5010631;28;20069;-70
2022/09/25 09:30:52;;;;;;;17.20;10.73;;;12.90;98.40;;;;;;5011149;28;20045;-70
2022/09/25 09:33:41;;;;;;;15.27;11.25;;;12.80;98.30;;;;;;5009937;28;20199;-70
2022/09/25 09:36:14;;;;;;;15.82;10.38;;;12.80;98.30;;;;;;5001903;28;20185;-70
2022/09/25 09:38:46;;;;;;;14.60;10.65;;;12.70;98.30;;;;;;4998411;28;20215;-69
2022/09/25 09:41:39;;;;;;;13.57;10.55;;;12.80;98.50;;;;;;5008163;28;20139;-69
2022/09/25 09:44:30;;;;;;;14.02;10.25;;;12.60;98.40;;;;;;5007756;28;20047;-69
2022/09/25 09:46:56;;;;;;;15.27;10.05;;;12.70;98.60;;;;;;5006699;28;20127;-70
2022/09/25 09:49:28;;;;;;;13.15;10.35;;;12.70;98.30;;;;;;5008141;28;20561;-70
2022/09/25 09:52:11;;;;;;;16.88;11.32;;;12.70;98.50;;;;;;5010535;28;20435;-70
2022/09/25 09:55:05;;;;;;;15.30;10.75;;;12.60;98.50;;;;;;4996200;28;20125;-70
2022/09/25 09:57:53;;;;;;;14.02;10.25;;;12.60;98.60;;;;;;4966118;28;20177;-70
2022/09/25 10:00:21;;;;;;;13.98;10.27;;;12.60;98.50;;;;;;5006155;28;20502;-70
2022/09/25 10:03:11;;;;;;;14.52;10.20;;;12.50;98.50;;;;;;5009596;28;20061;-70
2022/09/25 10:05:52;;;;;;;14.48;10.52;;;12.50;98.60;;;;;;5013229;28;20078;-70
2022/09/25 10:08:17;;;;;;;15.48;11.32;;;12.70;98.80;;;;;;5015722;28;20025;-70
2022/09/25 10:10:46;;;;;;;14.93;11.10;;;12.60;98.60;;;;;;4998521;28;20049;-70
2022/09/25 10:13:31;;;;;;;15.65;10.82;;;12.60;98.60;;;;;;4999754;28;20030;-71
2022/09/25 10:15:59;;;;;;;16.17;10.85;;;12.60;98.70;;;;;;5010292;28;20070;-70
2022/09/25 10:18:30;;;;;;;15.18;12.52;;;12.60;98.80;;;;;;5009087;28;20030;-70
2022/09/25 10:21:42;;;;;;;16.38;11.50;;;12.60;98.80;;;;;;5014998;28;20155;-69
2022/09/25 10:24:08;;;;;;;14.82;11.07;;;12.50;98.70;;;;;;5009109;28;20133;-71
2022/09/25 10:26:38;;;;;;;13.52;10.63;;;12.60;98.70;;;;;;5017593;28;20106;-70
2022/09/25 10:29:18;;;;;;;16.08;11.10;;;12.70;98.70;;;;;;5011608;28;20072;-69
2022/09/25 10:31:43;;;;;;;13.60;10.23;;;12.60;98.70;;;;;;5009793;28;20034;-70
2022/09/25 10:34:12;;;;;;;13.30;10.30;;;12.60;98.60;;;;;;5008899;28;20100;-69
2022/09/25 10:36:43;;;;;;;13.65;9.88;;;12.50;98.70;;;;;;5010158;28;20022;-70
2022/09/25 10:39:31;;;;;;;12.15;9.02;;;12.50;98.70;;;;;;5007109;28;20108;-71
2022/09/25 10:42:01;;;;;;;10.88;7.30;;;12.50;98.60;;;;;;4997442;28;20041;-70
2022/09/25 10:44:35;;;;;;;12.60;7.50;;;12.50;98.40;;;;;;5000507;28;20042;-69
2022/09/25 10:50:21;;;;;;;9.68;5.80;;;12.60;98.40;;;;;;4995876;28;20044;-70
2022/09/25 10:52:58;;;;;;;9.52;5.68;;;12.60;98.20;;;;;;5006308;28;20034;-71
2022/09/25 10:55:36;;;;;;;10.57;5.97;;;12.70;98.00;;;;;;4988751;28;20034;-70
2022/09/25 10:58:18;;;;;;;10.07;4.40;;;12.90;97.80;;;;;;5007417;28;20068;-70
2022/09/25 11:00:52;;;;;;;10.52;5.57;;;12.70;96.80;;;;;;5004203;28;20023;-70
2022/09/25 11:03:24;;;;;;;7.53;3.88;;;13.10;97.50;;;;;;5003850;28;20038;-69
2022/09/25 11:05:58;;;;;;;15.27;7.82;;;13.00;96.50;;;;;;5009018;28;20143;-70
2022/09/25 11:08:29;;;;;;;12.32;5.47;;;13.10;96.60;;;;;;5007500;28;20312;-70
2022/09/25 11:10:56;;;;;;;10.90;4.65;;;13.10;96.00;;;;;;5008919;28;20415;-70
2022/09/25 11:13:25;;;;;;;12.15;5.10;;;13.20;96.00;;;;;;5008887;28;20125;-71
2022/09/25 11:15:56;;;;;;;7.75;5.18;;;13.30;95.80;;;;;;5009372;28;20029;-70
2022/09/25 11:18:38;;;;;;;8.77;4.53;;;13.20;95.40;;;;;;5007117;28;20064;-70
2022/09/25 11:21:14;;;;;;;9.00;5.70;;;13.40;95.50;;;;;;5003809;28;20434;-72
2022/09/25 11:23:48;;;;;;;10.02;4.20;;;13.30;94.90;;;;;;5007109;28;20090;-70
2022/09/25 11:26:24;;;;;;;8.93;4.70;;;13.40;95.00;;;;;;5006353;28;20090;-70
2022/09/25 11:29:04;;;;;;;8.80;3.92;;;13.40;95.00;;;;;;5008698;28;20346;-70
2022/09/25 11:31:41;;;;;;;9.45;4.82;;;13.50;95.30;;;;;;4996007;28;20042;-70
2022/09/25 11:34:48;;;;;;;8.18;4.15;;;13.30;94.90;;;;;;5007244;28;20057;-70
2022/09/25 11:37:34;;;;;;;9.13;4.45;;;13.20;95.00;;;;;;4999789;28;20114;-70
2022/09/25 11:43:05;;;;;;;6.45;3.80;;;13.00;95.40;;;;;;5003554;28;20116;-70
2022/09/25 11:45:48;;;;;;;7.88;4.32;;;12.90;95.50;;;;;;5007403;28;20068;-70
2022/09/25 11:48:49;;;;;;;8.88;4.40;;;12.90;95.80;;;;;;5008060;28;20030;-70
2022/09/25 11:51:44;;;;;;;8.57;4.63;;;13.00;96.00;;;;;;4947722;29;20123;-70
2022/09/25 11:54:34;;;;;;;9.20;5.50;;;12.90;95.90;;;;;;4990826;28;20053;-71
2022/09/25 11:57:12;;;;;;;9.80;4.78;;;12.90;96.00;;;;;;5008485;28;20425;-71
2022/09/25 11:59:45;;;;;;;7.88;4.60;;;12.80;96.00;;;;;;5016606;28;20036;-70
2022/09/25 12:02:24;;;;;;;13.70;4.50;;;12.80;95.90;;;;;;5007087;28;20038;-71
2022/09/25 12:05:05;;;;;;;9.15;3.78;;;12.90;96.00;;;;;;5006986;28;20026;-71
2022/09/25 12:07:43;;;;;;;7.53;4.53;;;13.00;96.10;;;;;;5011078;28;20116;-72
2022/09/25 12:10:14;;;;;;;8.20;4.05;;;13.00;96.00;;;;;;4999802;28;20285;-70
2022/09/25 12:12:59;;;;;;;11.57;5.25;;;13.00;96.00;;;;;;5014622;28;20490;-69
2022/09/25 12:15:56;;;;;;;8.05;4.38;;;13.10;95.80;;;;;;5021620;28;20022;-70
2022/09/25 12:18:37;;;;;;;9.00;4.10;;;13.30;95.70;;;;;;5010162;28;20048;-71
2022/09/25 12:21:09;;;;;;;7.82;3.78;;;13.40;95.00;;;;;;5015454;28;20450;-70
2022/09/25 12:23:44;;;;;;;10.15;4.38;;;13.60;94.40;;;;;;5028914;28;20033;-70
2022/09/25 12:26:39;;;;;;;6.03;3.22;;;13.90;94.30;;;;;;5007780;28;20110;-70
2022/09/25 12:29:27;;;;;;;7.07;3.25;;;14.10;93.10;;;;;;5007241;28;20176;-70
2022/09/25 12:32:28;;;;;;;4.15;2.40;;;14.20;92.70;;;;;;5012427;28;20030;-70
2022/09/25 12:35:04;;;;;;;7.88;2.40;;;14.10;91.60;;;;;;5021637;28;20119;-72
2022/09/25 12:37:43;;;;;;;5.13;1.80;;;14.10;91.40;;;;;;5010668;28;20065;-70
2022/09/25 12:40:21;;;;;;;4.25;1.60;;;14.20;91.30;;;;;;5004681;28;20017;-70
2022/09/25 12:42:59;;;;;;;3.92;1.95;;;14.50;89.90;;;;;;5015400;28;20100;-70
2022/09/25 12:45:34;;;;;;;2.95;1.65;;;15.10;92.00;;;;;;5008668;28;20034;-71
2022/09/25 12:48:02;;;;;;;5.93;1.48;;;14.90;88.80;;;;;;5010688;28;20088;-70
2022/09/25 12:50:37;;;;;;;3.50;1.33;;;14.90;88.50;;;;;;5011659;28;20041;-70
2022/09/25 12:53:34;;;;;;;4.47;1.25;;;14.90;87.40;;;;;;5010040;28;20045;-71
2022/09/25 12:56:23;;;;;;;4.35;1.38;;;14.60;88.10;;;;;;5010085;28;20065;-71
2022/09/25 12:59:02;;;;;;;2.78;1.17;;;14.60;87.00;;;;;;5011547;28;20089;-71
2022/09/25 13:01:27;;;;;;;7.32;1.30;;;14.80;88.10;;;;;;4995653;28;20030;-71
2022/09/25 13:04:33;;;;;;;5.07;1.40;;;15.20;86.20;;;;;;5010686;28;20034;-71
2022/09/25 13:07:34;;;;;;;7.35;1.50;;;15.90;86.50;;;;;;5005722;28;20414;-71
2022/09/25 13:10:06;;;;;;;2.22;0.60;;;16.10;81.10;;;;;;5009162;28;20065;-71
2022/09/25 13:12:36;;;;;;;3.67;0.95;;;16.60;80.30;;;;;;5011499;28;20040;-72
2022/09/25 13:15:17;;;;;;;3.80;1.02;;;16.50;79.40;;;;;;5011479;28;20460;-73